Time;durP1;ratioP1;P1;durP2;ratioP2;P2;SDS_P1;SDS_P2;PMS_P1;PMS_P2;Temp;Humidity;BMP_temperature;BMP_pressure;BME280_temperature;BME280_humidity;BME280_pressure;Samples;Min_cycle;Max_cycle;Signal;HPM_P1;HPM_P2
2021/03/14 00:00:54;;;;;;;10.15;7.72;;;;;;;6.23;62.92;94841.75;5073059;28;20032;-87
2021/03/14 00:03:22;;;;;;;16.25;10.43;;;;;;;6.61;64.19;94896.81;5076250;28;20062;-87
2021/03/14 00:05:49;;;;;;;19.85;11.45;;;;;;;5.84;64.41;94783.69;5076397;28;20108;-86
2021/03/14 00:08:17;;;;;;;15.25;9.23;;;;;;;6.62;64.48;94892.91;5076157;28;20081;-86
2021/03/14 00:10:48;;;;;;;9.02;6.60;;;;;;;6.57;64.05;94886.19;5076202;28;20412;-85
2021/03/14 00:13:17;;;;;;;9.93;7.32;;;;;;;6.57;64.60;94885.47;5076211;28;20497;-86
2021/03/14 00:15:43;;;;;;;9.63;5.47;;;;;;;6.19;64.08;94825.03;5076162;28;20404;-86
2021/03/14 00:18:10;;;;;;;6.32;5.22;;;;;;;6.47;63.80;94870.56;5076187;28;20082;-86
2021/03/14 00:20:37;;;;;;;6.72;5.45;;;;;;;6.44;64.18;94866.09;5056064;28;20039;-87
2021/03/14 00:23:04;;;;;;;7.63;5.60;;;;;;;6.16;64.48;94833.28;5056081;28;20021;-87
2021/03/14 00:25:30;;;;;;;8.00;5.18;;;;;;;5.86;64.54;94792.06;5056005;28;20043;-87
2021/03/14 00:27:55;;;;;;;8.68;5.95;;;;;;;6.32;64.66;94867.88;5060745;28;20020;-87
2021/03/14 00:30:21;;;;;;;10.70;5.78;;;;;;;6.12;64.69;94830.03;5076933;28;20313;-87
2021/03/14 00:32:46;;;;;;;11.05;5.75;;;;;;;6.12;64.24;94830.03;5092694;28;20059;-87
2021/03/14 00:35:14;;;;;;;9.05;6.13;;;;;;;6.33;64.75;94858.56;5075750;28;20482;-87
2021/03/14 00:37:40;;;;;;;7.43;6.20;;;;;;;6.25;65.43;94847.41;5076048;28;20028;-87
2021/03/14 00:40:06;;;;;;;7.90;5.97;;;;;;;6.28;64.57;94865.38;5061505;28;20023;-87
2021/03/14 00:42:32;;;;;;;8.40;5.85;;;;;;;5.75;64.69;94779.91;5075892;28;20497;-87
2021/03/14 00:44:58;;;;;;;8.63;5.82;;;;;;;6.03;65.12;94820.09;5075888;28;20121;-87
2021/03/14 00:47:23;;;;;;;8.63;6.05;;;;;;;5.49;64.97;94760.81;5075813;28;20035;-87
2021/03/14 00:49:48;;;;;;;7.85;5.40;;;;;;;6.22;65.26;94864.50;5076033;28;20060;-86
2021/03/14 00:52:14;;;;;;;8.80;5.97;;;;;;;5.84;64.86;94802.56;5092654;28;20044;-87
2021/03/14 00:54:39;;;;;;;5.25;4.75;;;;;;;5.81;64.32;94781.94;5079861;28;20412;-86
2021/03/14 00:57:06;;;;;;;7.03;5.60;;;;;;;5.69;64.59;94768.25;5080111;28;20047;-87
2021/03/14 00:59:31;;;;;;;7.13;5.85;;;;;;;5.79;64.99;94785.09;5079916;28;20059;-87
2021/03/14 01:01:58;;;;;;;8.20;5.65;;;;;;;5.89;65.15;94796.53;5079815;28;20035;-87
2021/03/14 01:04:24;;;;;;;7.38;5.55;;;;;;;5.92;65.22;94830.69;5079710;28;20032;-87
2021/03/14 01:06:50;;;;;;;8.75;5.90;;;;;;;5.87;66.33;94817.81;5079821;28;20025;-87
2021/03/14 01:09:15;;;;;;;9.73;5.40;;;;;;;5.77;66.39;94812.50;5080665;28;20038;-87
2021/03/14 01:11:41;;;;;;;7.47;5.63;;;;;;;5.90;66.51;94846.50;5079689;28;20031;-87
2021/03/14 01:14:06;;;;;;;9.70;5.88;;;;;;;6.09;67.15;94857.91;5079551;28;20412;-87
2021/03/14 01:16:32;;;;;;;9.10;5.63;;;;;;;5.76;66.95;94829.88;5080317;28;20032;-87
2021/03/14 01:18:57;;;;;;;7.88;5.63;;;;;;;5.95;66.81;94857.44;5079333;28;20020;-87
2021/03/14 01:21:22;;;;;;;9.25;5.88;;;;;;;5.77;66.17;94852.16;5079290;28;20024;-87
2021/03/14 01:23:48;;;;;;;7.00;4.53;;;;;;;5.79;67.30;94855.88;5079198;28;20024;-87
2021/03/14 01:26:13;;;;;;;4.57;3.25;;;;;;;6.26;67.67;94897.44;5079383;28;20086;-87
2021/03/14 01:28:40;;;;;;;4.70;3.25;;;;;;;5.81;67.51;94825.81;5078977;28;20040;-87
2021/03/14 01:31:06;;;;;;;4.25;2.70;;;;;;;6.39;67.49;94904.50;5079117;28;20050;-88
2021/03/14 01:33:31;;;;;;;4.35;2.55;;;;;;;6.37;67.74;94898.84;5079145;28;20016;-87
2021/03/14 01:35:57;;;;;;;3.50;2.30;;;;;;;6.16;67.54;94850.19;5079238;28;20024;-87
2021/03/14 01:38:22;;;;;;;2.88;2.10;;;;;;;5.81;68.26;94830.44;5079052;28;20082;-86
2021/03/14 01:40:48;;;;;;;3.53;2.38;;;;;;;5.93;68.30;94845.63;5080047;28;20036;-87
2021/03/14 01:43:13;;;;;;;2.15;1.73;;;;;;;6.04;68.37;94872.78;5078906;28;20329;-87
2021/03/14 01:45:39;;;;;;;2.78;2.03;;;;;;;5.89;68.05;94845.78;5095794;28;20028;-87
2021/03/14 01:48:06;;;;;;;2.05;1.67;;;;;;;6.02;68.15;94861.72;5095941;28;20017;-87
2021/03/14 01:50:33;;;;;;;3.38;2.00;;;;;;;6.32;68.33;94902.19;5095720;28;20025;-87
2021/03/14 01:52:59;;;;;;;2.80;1.90;;;;;;;6.06;68.71;94866.91;5078672;28;20040;-87
2021/03/14 01:55:25;;;;;;;4.65;1.90;;;;;;;6.33;68.59;94896.31;5078834;28;20431;-88
2021/03/14 01:57:51;;;;;;;2.15;1.95;;;;;;;5.92;69.02;94838.75;5078833;28;20050;-86
2021/03/14 02:00:20;;;;;;;2.08;1.77;;;;;;;5.90;69.17;94846.50;5079631;28;20032;-86
2021/03/14 02:02:47;;;;;;;2.10;1.88;;;;;;;5.83;68.88;94819.94;5078581;28;20408;-86
2021/03/14 02:05:15;;;;;;;2.38;1.90;;;;;;;5.85;69.43;94831.00;5079384;28;20027;-87
2021/03/14 02:07:43;;;;;;;2.28;1.65;;;;;;;6.08;69.42;94861.81;5078598;28;20088;-87
2021/03/14 02:10:10;;;;;;;2.78;1.83;;;;;;;5.68;68.84;94817.97;5078095;28;20035;-87
2021/03/14 02:12:44;;;;;;;3.25;2.50;;;;;;;6.07;69.37;94873.78;5078456;28;20389;-88
2021/03/14 02:15:12;;;;;;;3.33;2.38;;;;;;;5.96;69.72;94871.66;5078343;28;20153;-86
2021/03/14 02:17:39;;;;;;;3.38;2.42;;;;;;;5.83;69.83;94858.41;5078110;28;20086;-86
2021/03/14 02:20:26;;;;;;;5.13;3.10;;;;;;;5.87;69.28;94871.72;5078089;28;20123;-86
2021/03/14 02:23:04;;;;;;;2.47;2.10;;;;;;;5.30;69.58;94799.84;5078325;28;20063;-86
2021/03/14 02:25:37;;;;;;;4.25;2.88;;;;;;;5.70;70.60;94855.97;5094921;28;20050;-87
2021/03/14 02:28:06;;;;;;;3.03;2.00;;;;;;;5.23;70.25;94792.88;5077925;28;20032;-86
2021/03/14 02:30:32;;;;;;;2.55;1.73;;;;;;;5.36;69.53;94805.34;5078148;28;20017;-86
2021/03/14 02:33:00;;;;;;;2.58;2.05;;;;;;;5.23;69.96;94806.34;5079111;28;20029;-88
2021/03/14 02:35:27;;;;;;;3.17;2.50;;;;;;;5.15;69.25;94802.50;5079123;28;20045;-87
2021/03/14 02:37:53;;;;;;;3.67;2.40;;;;;;;4.89;70.14;94777.25;5078074;28;20025;-87
2021/03/14 02:40:21;;;;;;;3.00;2.38;;;;;;;4.96;70.41;94787.69;5078027;28;20309;-87
2021/03/14 02:42:48;;;;;;;3.58;2.47;;;;;;;5.13;71.10;94826.44;5094873;28;20027;-87
2021/03/14 02:45:14;;;;;;;4.03;3.03;;;;;;;5.10;70.54;94832.72;5077899;28;20024;-87
2021/03/14 02:47:40;;;;;;;3.75;2.50;;;;;;;5.15;71.31;94839.44;5094372;28;20028;-87
2021/03/14 02:50:15;;;;;;;3.83;2.80;;;;;;;4.96;71.92;94822.66;5078836;28;20029;-87
2021/03/14 02:52:42;;;;;;;3.53;2.65;;;;;;;5.04;71.83;94863.41;5077316;28;20055;-88
2021/03/14 02:55:11;;;;;;;3.55;2.50;;;;;;;4.81;72.57;94805.69;5077390;28;20021;-87
2021/03/14 02:57:37;;;;;;;3.30;2.55;;;;;;;5.28;71.49;94866.88;5077555;28;20044;-87
2021/03/14 03:00:06;;;;;;;3.17;2.40;;;;;;;4.79;71.64;94803.44;5094141;28;20035;-87
2021/03/14 03:02:32;;;;;;;4.78;2.70;;;;;;;4.87;72.40;94844.22;5077257;28;20301;-87
2021/03/14 03:04:58;;;;;;;3.15;2.58;;;;;;;4.49;72.21;94780.31;5077472;28;20048;-86
2021/03/14 03:07:24;;;;;;;5.13;3.00;;;;;;;4.55;71.90;94794.63;5077232;28;20416;-87
2021/03/14 03:09:51;;;;;;;4.03;3.40;;;;;;;4.34;73.03;94786.31;5078452;28;20028;-87
2021/03/14 03:12:22;;;;;;;3.70;3.30;;;;;;;4.70;72.85;94843.84;5077374;28;20082;-86
2021/03/14 03:14:49;;;;;;;4.25;3.28;;;;;;;4.25;72.56;94780.22;5077014;28;20066;-87
2021/03/14 03:17:15;;;;;;;3.95;2.85;;;;;;;4.37;73.12;94819.63;5076993;28;20033;-87
2021/03/14 03:19:43;;;;;;;3.80;2.78;;;;;;;4.24;72.52;94811.75;5076912;28;20020;-87
2021/03/14 03:22:09;;;;;;;4.43;2.90;;;;;;;4.23;74.00;94821.00;5076749;28;20317;-88
2021/03/14 03:24:34;;;;;;;4.45;2.60;;;;;;;3.99;75.02;94785.22;5076699;28;20035;-87
2021/03/14 03:27:01;;;;;;;2.83;2.50;;;;;;;4.06;74.89;94799.09;5077049;28;20036;-87
2021/03/14 03:29:27;;;;;;;3.60;2.60;;;;;;;4.01;74.22;94809.72;5077011;28;20016;-87
2021/03/14 03:31:52;;;;;;;2.65;2.17;;;;;;;3.78;75.89;94779.63;5077122;28;20035;-87
2021/03/14 03:34:18;;;;;;;2.92;2.40;;;;;;;3.96;75.48;94797.63;5076847;28;20016;-87
2021/03/14 03:36:44;;;;;;;4.35;2.40;;;;;;;4.03;76.28;94799.25;5076816;28;20031;-87
2021/03/14 03:39:12;;;;;;;3.33;2.50;;;;;;;3.77;75.54;94769.31;5076919;28;20314;-86
2021/03/14 03:41:46;;;;;;;3.55;2.28;;;;;;;3.54;76.00;94730.41;5076781;28;20028;-87
2021/03/14 03:44:12;;;;;;;2.97;2.40;;;;;;;3.86;75.95;94790.78;5076688;28;20028;-87
2021/03/14 03:46:41;;;;;;;2.53;2.10;;;;;;;3.76;75.28;94797.38;5076800;28;20031;-87
2021/03/14 03:49:08;;;;;;;2.83;2.05;;;;;;;3.80;75.45;94798.72;5076626;28;20107;-87
2021/03/14 03:51:35;;;;;;;3.05;2.22;;;;;;;3.78;75.05;94795.75;5076488;28;20063;-86
2021/03/14 03:54:04;;;;;;;3.63;2.50;;;;;;;4.11;75.51;94840.75;5076501;28;20020;-87
2021/03/14 03:56:30;;;;;;;3.83;2.85;;;;;;;3.80;75.94;94804.09;5076507;28;20032;-87
2021/03/14 03:59:02;;;;;;;3.90;3.50;;;;;;;3.54;76.57;94771.44;5076454;28;20020;-87
2021/03/14 04:01:27;;;;;;;4.57;3.35;;;;;;;3.88;76.97;94801.81;5077493;28;20032;-86
2021/03/14 04:03:54;;;;;;;4.60;3.28;;;;;;;3.80;77.15;94816.75;5076486;28;20352;-87
2021/03/14 04:06:23;;;;;;;3.95;3.17;;;;;;;3.78;77.64;94795.75;5076414;28;20021;-86
2021/03/14 04:08:49;;;;;;;3.55;2.90;;;;;;;3.73;77.05;94790.97;5076316;28;20024;-87
2021/03/14 04:11:18;;;;;;;4.18;3.13;;;;;;;3.94;77.36;94835.72;5075953;28;20115;-87
2021/03/14 04:13:45;;;;;;;4.88;3.22;;;;;;;3.88;77.03;94807.94;5076367;28;20424;-87
2021/03/14 04:16:13;;;;;;;4.22;3.10;;;;;;;4.20;77.62;94859.53;5076246;28;20028;-87
2021/03/14 04:18:40;;;;;;;3.55;3.15;;;;;;;4.16;77.65;94859.69;5076136;28;20323;-87
2021/03/14 04:21:10;;;;;;;3.63;2.88;;;;;;;4.24;76.83;94854.75;5076231;28;20021;-86
2021/03/14 04:23:40;;;;;;;3.55;3.03;;;;;;;3.76;77.66;94810.78;5076197;28;20034;-86
2021/03/14 04:26:06;;;;;;;4.93;3.63;;;;;;;3.87;78.02;94816.44;5075807;28;20385;-86
2021/03/14 04:28:33;;;;;;;3.63;3.13;;;;;;;3.86;77.69;94804.97;5077123;28;20090;-87
2021/03/14 04:30:59;;;;;;;3.85;3.28;;;;;;;3.86;77.73;94810.34;5076799;28;20039;-87
2021/03/14 04:33:27;;;;;;;4.72;3.38;;;;;;;3.58;78.44;94768.59;5076008;28;20031;-86
2021/03/14 04:39:15;;;;;;;5.65;4.47;;;;;;;4.17;77.36;94847.00;5077250;28;20105;-87
2021/03/14 04:41:42;;;;;;;4.72;3.85;;;;;;;4.25;77.64;94858.91;5072405;28;20021;-86
2021/03/14 04:44:09;;;;;;;3.92;3.47;;;;;;;4.07;77.80;94832.84;5055834;28;20036;-86
2021/03/14 04:46:36;;;;;;;3.95;3.33;;;;;;;3.71;77.74;94774.53;5055872;28;20332;-86
2021/03/14 04:49:01;;;;;;;3.72;3.25;;;;;;;4.27;77.17;94837.72;5056794;28;20032;-86
2021/03/14 04:51:30;;;;;;;4.97;3.53;;;;;;;4.19;77.04;94836.53;5055561;28;20053;-86
2021/03/14 04:53:57;;;;;;;3.92;3.13;;;;;;;4.02;78.01;94819.25;5056904;28;20021;-88
2021/03/14 04:56:24;;;;;;;4.10;3.40;;;;;;;3.87;78.38;94784.97;5056662;28;20467;-87
2021/03/14 04:58:51;;;;;;;5.28;3.70;;;;;;;3.92;77.71;94802.41;5055572;28;20057;-87
2021/03/14 05:01:19;;;;;;;4.13;3.63;;;;;;;3.78;77.88;94782.31;5055731;28;20401;-87
2021/03/14 05:03:48;;;;;;;4.20;3.40;;;;;;;4.01;77.63;94823.16;5055619;28;20037;-88
2021/03/14 05:06:17;;;;;;;3.78;3.28;;;;;;;3.59;78.72;94748.63;5055619;28;20049;-87
2021/03/14 05:08:43;;;;;;;4.28;3.45;;;;;;;3.52;77.02;94748.94;5055231;28;20033;-87
2021/03/14 05:11:09;;;;;;;4.28;3.55;;;;;;;3.33;79.21;94702.56;5055729;28;20049;-88
2021/03/14 05:13:37;;;;;;;3.67;3.28;;;;;;;3.54;77.21;94739.22;5055683;28;20067;-87
2021/03/14 05:16:03;;;;;;;4.72;3.67;;;;;;;3.40;78.16;94729.09;5055709;28;20401;-87
2021/03/14 05:18:29;;;;;;;3.80;3.40;;;;;;;3.39;78.55;94722.22;5056567;28;20116;-87
2021/03/14 05:20:55;;;;;;;4.85;3.40;;;;;;;3.46;78.78;94734.59;5055557;28;20075;-88
2021/03/14 05:23:21;;;;;;;3.85;3.47;;;;;;;3.67;78.60;94761.28;5056539;28;20040;-87
2021/03/14 05:25:49;;;;;;;4.70;3.17;;;;;;;3.48;78.01;94734.91;5055399;28;20058;-87
2021/03/14 05:28:19;;;;;;;5.13;3.53;;;;;;;3.68;77.85;94770.81;5055389;28;20033;-87
2021/03/14 05:30:44;;;;;;;4.18;3.75;;;;;;;3.44;77.83;94756.53;5055565;28;20129;-87
2021/03/14 05:33:10;;;;;;;3.88;3.42;;;;;;;3.66;78.58;94769.78;5055384;28;20031;-88
2021/03/14 05:35:36;;;;;;;6.55;4.50;;;;;;;3.85;78.51;94798.09;5055419;28;20024;-87
2021/03/14 05:38:01;;;;;;;6.30;5.30;;;;;;;3.50;78.99;94746.69;5055455;28;20032;-87
2021/03/14 05:40:29;;;;;;;6.43;5.50;;;;;;;3.90;79.34;94794.81;5059231;28;20021;-88
2021/03/14 05:42:56;;;;;;;6.47;5.35;;;;;;;3.60;79.69;94750.84;5058997;28;20443;-88
2021/03/14 05:45:22;;;;;;;8.43;6.40;;;;;;;3.46;79.61;94731.91;5058816;28;20120;-86
2021/03/14 05:47:48;;;;;;;13.18;7.60;;;;;;;3.60;79.46;94748.16;5059025;28;20067;-88
2021/03/14 05:50:22;;;;;;;13.93;7.07;;;;;;;4.07;79.04;94826.72;5059241;28;20492;-87
2021/03/14 05:52:49;;;;;;;10.10;7.22;;;;;;;3.79;79.04;94786.47;5059642;28;20053;-87
2021/03/14 05:55:25;;;;;;;13.55;7.22;;;;;;;3.97;79.04;94836.72;5058933;28;20132;-87
2021/03/14 05:57:53;;;;;;;9.52;6.78;;;;;;;4.07;78.61;94837.47;5058509;28;20032;-87
2021/03/14 06:00:28;;;;;;;8.40;6.25;;;;;;;3.70;78.37;94785.75;5058681;28;20020;-87
2021/03/14 06:02:56;;;;;;;8.95;6.40;;;;;;;4.22;78.32;94851.03;5058645;28;20086;-87
2021/03/14 06:05:23;;;;;;;8.30;6.10;;;;;;;3.88;78.29;94791.81;5058540;28;20021;-87
2021/03/14 06:07:49;;;;;;;9.63;6.10;;;;;;;3.78;77.94;94776.16;5058550;28;20114;-86
2021/03/14 06:10:16;;;;;;;9.23;6.75;;;;;;;4.15;77.74;94825.94;5058632;28;20313;-87
2021/03/14 06:12:43;;;;;;;10.30;7.05;;;;;;;4.08;77.47;94820.88;5058360;28;20082;-86
2021/03/14 06:15:09;;;;;;;10.82;8.02;;;;;;;4.14;76.72;94835.19;5058418;28;20313;-87
2021/03/14 06:17:36;;;;;;;11.85;7.75;;;;;;;4.31;76.90;94845.63;5058293;28;20074;-86
2021/03/14 06:20:02;;;;;;;9.68;7.10;;;;;;;4.52;76.61;94863.47;5058392;28;20021;-87
2021/03/14 06:22:29;;;;;;;9.10;6.18;;;;;;;4.57;76.92;94862.13;5057902;28;20025;-87
2021/03/14 06:24:54;;;;;;;9.85;6.22;;;;;;;4.47;76.60;94854.09;5058129;28;20550;-87
2021/03/14 06:27:52;;;;;;;10.50;6.70;;;;;;;4.63;76.92;94868.38;5059212;28;20028;-87
2021/03/14 06:30:24;;;;;;;9.48;5.72;;;;;;;4.38;76.42;94838.00;5059216;28;20078;-87
2021/03/14 06:33:07;;;;;;;8.27;5.65;;;;;;;4.41;76.69;94834.38;5058147;28;20409;-87
2021/03/14 06:38:54;;;;;;;6.55;4.88;;;;;;;4.71;75.70;94856.09;5073533;28;20102;-87
2021/03/14 06:41:20;;;;;;;7.20;5.28;;;;;;;4.47;75.41;94823.75;5077976;28;20021;-86
2021/03/14 06:43:55;;;;;;;6.53;4.68;;;;;;;4.65;75.26;94845.22;5077895;28;20119;-86
2021/03/14 06:46:31;;;;;;;6.43;4.70;;;;;;;4.89;75.15;94868.72;5078942;28;20082;-86
2021/03/14 06:49:11;;;;;;;7.50;5.07;;;;;;;4.58;74.72;94815.19;5078873;28;20021;-86
2021/03/14 06:51:44;;;;;;;6.03;4.20;;;;;;;4.65;74.33;94829.06;5076478;28;20056;-87
2021/03/14 06:54:19;;;;;;;5.32;3.70;;;;;;;4.95;74.51;94866.91;5077820;28;20267;-87
2021/03/14 06:57:04;;;;;;;5.88;3.85;;;;;;;4.67;74.75;94821.28;5077674;28;20413;-88
2021/03/14 06:59:31;;;;;;;5.88;4.07;;;;;;;4.69;74.30;94807.41;5077730;28;20028;-87
2021/03/14 07:02:12;;;;;;;8.63;5.63;;;;;;;4.95;74.43;94864.19;5077524;28;20047;-87
2021/03/14 07:04:45;;;;;;;12.35;7.53;;;;;;;4.99;75.87;94864.78;5077299;28;20359;-87
2021/03/14 07:07:21;;;;;;;11.10;9.35;;;;;;;4.95;75.82;94859.59;5078252;28;20035;-90
2021/03/14 07:09:54;;;;;;;10.63;8.20;;;;;;;5.12;75.34;94881.47;5077549;28;20059;-86
2021/03/14 07:12:33;;;;;;;10.30;7.32;;;;;;;4.95;75.58;94858.81;5079386;28;20024;-87
2021/03/14 07:15:24;;;;;;;12.23;7.95;;;;;;;5.17;75.89;94875.47;5073335;28;20077;-89
2021/03/14 07:17:51;;;;;;;9.40;7.75;;;;;;;5.27;74.53;94868.06;5073761;28;20421;-87
2021/03/14 07:20:26;;;;;;;10.10;8.48;;;;;;;5.33;73.23;94882.41;5077425;28;20400;-87
2021/03/14 07:23:03;;;;;;;88.20;40.38;;;;;;;5.34;72.96;94886.59;5076639;28;20052;-91
2021/03/14 07:25:30;;;;;;;29.77;17.38;;;;;;;5.37;72.65;94896.44;5094171;28;20028;-90
2021/03/14 07:27:56;;;;;;;23.40;15.85;;;;;;;5.46;72.35;94895.63;5093870;28;20111;-89
2021/03/14 07:30:25;;;;;;;18.98;13.85;;;;;;;5.17;72.30;94853.19;5076909;28;20365;-89
2021/03/14 07:32:51;;;;;;;65.57;24.00;;;;;;;5.03;71.13;94825.00;5076986;28;20387;-86
2021/03/14 07:35:17;;;;;;;21.23;13.15;;;;;;;5.58;71.86;94899.31;5078127;28;20040;-86
2021/03/14 07:37:43;;;;;;;9.43;5.68;;;;;;;5.56;70.45;94909.81;5094013;28;20028;-91
2021/03/14 07:40:10;;;;;;;10.57;5.10;;;;;;;5.09;70.39;94819.75;5076861;28;20324;-87
2021/03/14 07:42:37;;;;;;;6.57;4.90;;;;;;;5.12;70.48;94835.72;5076167;28;20370;-88
2021/03/14 07:45:12;;;;;;;9.23;5.00;;;;;;;5.66;68.80;94911.97;5076538;28;20024;-87
2021/03/14 07:47:39;;;;;;;13.85;7.55;;;;;;;5.69;68.32;94896.81;5076412;28;20078;-86
2021/03/14 07:50:08;;;;;;;6.57;4.70;;;;;;;5.84;69.28;94913.03;5076404;28;20420;-87
2021/03/14 07:52:34;;;;;;;42.35;18.70;;;;;;;5.70;68.60;94914.47;5076404;28;20044;-87
2021/03/14 07:55:03;;;;;;;18.98;9.00;;;;;;;5.50;68.40;94872.72;5075935;28;20024;-86
2021/03/14 07:57:30;;;;;;;37.72;16.20;;;;;;;5.99;68.20;94938.13;5080888;28;20492;-83
2021/03/14 07:59:56;;;;;;;14.25;8.25;;;;;;;5.75;68.13;94901.13;5076503;28;20119;-87
2021/03/14 08:02:21;;;;;;;8.50;5.95;;;;;;;6.16;69.21;94939.16;5076056;28;20117;-86
2021/03/14 08:04:48;;;;;;;8.63;6.35;;;;;;;5.54;69.63;94840.25;5075247;28;20040;-87
2021/03/14 08:07:14;;;;;;;9.57;7.85;;;;;;;5.71;69.40;94862.09;5056293;28;20020;-87
2021/03/14 08:09:41;;;;;;;11.40;8.38;;;;;;;6.30;69.36;94933.06;5056268;28;20324;-87
2021/03/14 08:12:18;;;;;;;11.45;8.32;;;;;;;6.43;68.47;94926.66;5057280;28;20021;-85
2021/03/14 08:14:45;;;;;;;13.52;8.90;;;;;;;6.50;67.41;94918.94;5091555;28;20054;-91
2021/03/14 08:17:35;;;;;;;13.68;9.40;;;;;;;6.41;67.66;94892.06;5070581;28;20348;-90
2021/03/14 08:20:03;;;;;;;17.38;11.23;;;;;;;6.69;66.44;94929.53;5048083;28;20033;-89
2021/03/14 08:22:37;;;;;;;13.57;7.95;;;;;;;6.80;64.61;94929.72;5056195;28;20032;-89
2021/03/14 08:25:24;;;;;;;11.60;7.60;;;;;;;6.61;60.63;94874.47;5057195;28;20029;-88
2021/03/14 08:28:03;;;;;;;9.90;5.68;;;;;;;6.57;59.99;94880.06;5076748;28;20048;-88
2021/03/14 08:30:32;;;;;;;3.72;2.28;;;;;;;7.01;61.07;94912.38;5093502;28;20028;-89
2021/03/14 08:33:25;;;;;;;2.80;2.00;;;;;;;7.09;58.19;94916.19;5072003;28;20105;-88
2021/03/14 08:35:51;;;;;;;8.45;4.68;;;;;;;7.15;57.99;94912.84;5076990;28;20057;-90
2021/03/14 08:38:28;;;;;;;4.75;2.42;;;;;;;7.26;58.85;94916.44;5076129;28;20406;-90
2021/03/14 08:41:40;;;;;;;15.48;7.90;;;;;;;7.27;56.91;94909.06;5072904;28;20062;-90
2021/03/14 08:44:13;;;;;;;5.25;2.50;;;;;;;7.22;56.43;94902.38;5019365;28;20128;-88
2021/03/14 08:46:50;;;;;;;3.65;1.98;;;;;;;7.32;57.22;94901.06;5023839;28;20523;-88
2021/03/14 08:49:21;;;;;;;11.25;4.00;;;;;;;7.29;56.47;94893.88;5068231;28;20037;-88
2021/03/14 08:51:47;;;;;;;4.68;2.70;;;;;;;7.34;55.77;94914.81;5072046;28;20068;-88
2021/03/14 08:54:14;;;;;;;5.03;2.88;;;;;;;7.34;55.62;94922.91;5075532;28;20063;-89
2021/03/14 08:56:40;;;;;;;3.10;2.10;;;;;;;6.94;54.54;94868.84;5075825;28;20028;-88
2021/03/14 08:59:11;;;;;;;5.40;3.53;;;;;;;7.43;57.36;94929.44;5075822;28;20025;-88
2021/03/14 09:01:40;;;;;;;9.75;4.47;;;;;;;7.47;55.84;94924.56;5072291;28;20051;-89
2021/03/14 09:04:27;;;;;;;9.75;4.70;;;;;;;7.00;55.45;94867.72;5076651;28;20367;-90
2021/03/14 09:07:00;;;;;;;2.72;1.50;;;;;;;7.07;56.18;94856.50;5092856;28;20028;-90
2021/03/14 09:09:25;;;;;;;59.58;25.42;;;;;;;7.18;55.61;94876.78;5077593;28;20087;-91
2021/03/14 09:11:57;;;;;;;4.03;2.10;;;;;;;7.31;55.51;94885.31;5078776;28;20020;-90
2021/03/14 09:14:32;;;;;;;6.65;3.15;;;;;;;7.12;55.81;94855.09;5078930;28;20115;-93
2021/03/14 09:17:04;;;;;;;15.88;6.80;;;;;;;7.48;54.35;94910.59;5083730;28;20028;-92
2021/03/14 09:19:40;;;;;;;7.20;3.40;;;;;;;7.31;53.78;94915.03;5083442;28;20111;-92
2021/03/14 09:22:27;;;;;;;1.90;1.20;;;;;;;7.11;54.99;94888.72;5082015;28;20031;-90
2021/03/14 09:24:58;;;;;;;6.80;3.28;;;;;;;6.69;54.26;94845.91;5080172;28;20024;-90
2021/03/14 09:27:28;;;;;;;19.75;8.05;;;;;;;6.97;54.60;94894.88;5099641;28;20104;-90
2021/03/14 09:29:57;;;;;;;29.75;11.45;;;;;;;7.19;55.00;94951.16;5079203;28;20055;-90
2021/03/14 09:32:42;;;;;;;26.42;12.73;;;;;;;6.93;56.64;94905.16;5075908;28;20112;-92
2021/03/14 09:35:26;;;;;;;12.85;6.35;;;;;;;7.12;55.56;94955.00;5083381;28;20028;-91
2021/03/14 09:37:56;;;;;;;10.40;4.63;;;;;;;7.09;55.40;94951.31;5082104;28;20051;-92
2021/03/14 09:40:28;;;;;;;19.42;8.32;;;;;;;7.18;55.88;94957.78;5085102;28;20110;-92
2021/03/14 09:43:28;;;;;;;21.02;8.38;;;;;;;7.13;55.83;94971.94;5089646;28;20024;-91
2021/03/14 09:46:01;;;;;;;53.20;21.17;;;;;;;7.10;56.61;94973.63;5100319;28;20040;-90
2021/03/14 09:48:34;;;;;;;13.43;6.15;;;;;;;6.81;56.60;94958.94;5119142;28;20423;-92
2021/03/14 09:51:04;;;;;;;12.18;5.20;;;;;;;6.92;57.52;94984.63;5083190;28;20036;-92
2021/03/14 09:53:36;;;;;;;14.50;6.93;;;;;;;6.59;58.82;94944.34;5081716;28;20028;-92
2021/03/14 09:56:05;;;;;;;25.90;11.93;;;;;;;6.80;57.68;94991.78;5081905;28;20063;-91
2021/03/14 09:58:32;;;;;;;7.93;4.40;;;;;;;6.64;58.81;94992.25;5085419;28;20054;-87
2021/03/14 10:00:59;;;;;;;4.10;3.20;;;;;;;6.37;59.42;94936.59;5085725;28;20032;-92
2021/03/14 10:03:29;;;;;;;10.75;4.82;;;;;;;6.70;59.25;94993.09;5082970;28;20028;-90
2021/03/14 10:06:06;;;;;;;3.00;1.70;;;;;;;6.70;59.36;94983.03;5078610;28;20082;-90
2021/03/14 10:08:39;;;;;;;16.50;7.47;;;;;;;6.13;58.72;94898.94;5079054;28;20044;-91
2021/03/14 10:11:08;;;;;;;7.50;3.72;;;;;;;6.44;59.14;94942.34;5079480;28;20030;-92
2021/03/14 10:13:35;;;;;;;5.22;4.20;;;;;;;6.81;59.59;94996.72;5081644;28;20024;-93
2021/03/14 10:16:06;;;;;;;2.25;1.80;;;;;;;6.37;62.74;94944.69;5083168;28;20021;-92
2021/03/14 10:18:32;;;;;;;2.25;1.75;;;;;;;6.16;66.53;94931.06;5083763;28;20036;-95
2021/03/14 10:21:18;;;;;;;2.35;1.10;;;;;;;6.85;65.18;95017.41;5081546;28;20024;-94
2021/03/14 10:23:45;;;;;;;1.23;1.10;;;;;;;6.89;65.87;95005.22;5082289;28;20042;-93
2021/03/14 10:26:12;;;;;;;1.85;1.00;;;;;;;6.37;67.47;94969.69;5080606;28;20024;-92
2021/03/14 10:28:40;;;;;;;1.67;1.00;;;;;;;6.46;66.71;94990.47;5079736;28;20028;-91
2021/03/14 10:31:07;;;;;;;1.00;0.70;;;;;;;6.41;67.07;94994.56;5079612;28;20055;-93
2021/03/14 10:33:35;;;;;;;2.38;1.30;;;;;;;6.56;68.91;95051.22;5079317;28;20024;-91
2021/03/14 10:36:10;;;;;;;1.23;0.95;;;;;;;6.04;70.30;94986.00;5079288;28;20058;-92
2021/03/14 10:38:48;;;;;;;1.15;1.02;;;;;;;5.72;70.24;94972.09;5078886;28;20020;-90
2021/03/14 10:41:21;;;;;;;1.67;1.00;;;;;;;5.74;71.86;95020.88;5079114;28;20028;-92
2021/03/14 10:43:48;;;;;;;1.80;1.40;;;;;;;6.11;72.08;95063.81;5079224;28;20039;-91
2021/03/14 10:46:14;;;;;;;2.20;1.45;;;;;;;5.65;73.38;94974.41;5071987;28;21645;-89
2021/03/14 10:48:40;;;;;;;5.35;3.38;;;;;;;5.88;72.68;95016.03;5071265;28;20039;-92
2021/03/14 10:51:07;;;;;;;14.80;8.07;;;;;;;5.62;72.61;94972.59;5079193;28;20036;-93
2021/03/14 10:53:33;;;;;;;11.15;6.45;;;;;;;5.79;74.82;94973.69;5078843;28;20115;-93
2021/03/14 10:56:07;;;;;;;6.68;4.10;;;;;;;5.99;73.30;94992.75;5077397;28;20017;-87
2021/03/14 10:58:41;;;;;;;3.15;2.35;;;;;;;6.10;71.90;95015.75;5075980;28;20086;-89
2021/03/14 11:01:10;;;;;;;6.75;4.13;;;;;;;6.39;72.81;95050.16;5076694;28;20017;-89
2021/03/14 11:03:40;;;;;;;4.20;2.97;;;;;;;6.51;73.89;95046.47;5077838;28;20039;-90
2021/03/14 11:06:24;;;;;;;3.30;2.47;;;;;;;6.76;73.00;95004.72;5092889;28;20043;-91
2021/03/14 11:08:55;;;;;;;2.20;2.00;;;;;;;6.90;73.94;95055.28;5075870;28;20332;-88
2021/03/14 11:11:28;;;;;;;4.68;3.05;;;;;;;6.92;75.30;95052.09;5077041;28;20082;-88
2021/03/14 11:13:54;;;;;;;5.85;3.58;;;;;;;6.36;73.74;94967.47;5094135;28;20099;-91
2021/03/14 11:16:24;;;;;;;5.65;3.40;;;;;;;6.63;72.89;94988.06;5076238;28;21008;-85
2021/03/14 11:19:03;;;;;;;13.02;8.00;;;;;;;7.27;70.77;95052.22;5074389;28;20203;-85
2021/03/14 11:21:28;;;;;;;8.40;5.40;;;;;;;7.00;69.99;94986.50;5081640;28;20028;-86
2021/03/14 11:23:54;;;;;;;2.35;1.85;;;;;;;7.40;67.06;95036.44;5076395;28;20027;-90
2021/03/14 11:26:19;;;;;;;12.48;7.15;;;;;;;6.95;67.62;94987.16;5077004;28;20305;-89
2021/03/14 11:28:46;;;;;;;14.65;7.75;;;;;;;7.19;69.38;95005.19;5075004;28;20025;-91
2021/03/14 11:31:12;;;;;;;1.88;1.40;;;;;;;6.81;66.67;94960.91;5076982;28;20027;-93
2021/03/14 11:33:37;;;;;;;1.98;1.42;;;;;;;6.86;66.27;94962.19;5076182;28;20020;-91
2021/03/14 11:36:03;;;;;;;1.40;1.25;;;;;;;7.55;67.67;95022.94;5068844;28;20051;-92
2021/03/14 11:38:29;;;;;;;3.15;2.17;;;;;;;7.30;64.80;94989.91;5076713;28;20024;-91
2021/03/14 11:40:56;;;;;;;3.50;2.38;;;;;;;7.49;64.84;95012.03;5076278;28;20029;-92
2021/03/14 11:43:23;;;;;;;3.05;1.92;;;;;;;7.11;63.95;94958.19;5077230;28;20028;-90
2021/03/14 11:49:11;;;;;;;2.83;2.00;;;;;;;7.59;64.39;94972.13;5072389;28;20097;-88
2021/03/14 11:51:37;;;;;;;2.17;1.48;;;;;;;7.85;61.13;95002.72;5096845;28;20044;-89
2021/03/14 11:54:02;;;;;;;2.75;1.40;;;;;;;7.84;61.86;95016.72;5096799;28;20047;-91
2021/03/14 11:56:29;;;;;;;1.95;1.27;;;;;;;8.01;61.66;95033.16;5090146;28;20032;-90
2021/03/14 11:58:58;;;;;;;2.00;1.58;;;;;;;8.17;62.38;95024.50;5076935;28;20032;-91